createdAt,value
2017-11-05T00:01:59.042Z,98032.75
2017-11-05T00:04:32.453Z,98039.41
2017-11-05T00:07:13.700Z,98034.72
2017-11-05T00:09:57.211Z,98028.05
2017-11-05T00:15:20.383Z,98028.55
2017-11-05T00:17:59.084Z,98027.36
2017-11-05T00:20:32.424Z,98024.45
2017-11-05T00:23:08.011Z,98020.87
2017-11-05T00:25:51.982Z,98026.61
2017-11-05T00:28:31.568Z,98017.48
2017-11-05T00:31:13.097Z,98020.70
2017-11-05T00:34:07.528Z,98017.98
2017-11-05T00:36:44.352Z,98011.32
2017-11-05T00:42:11.343Z,98011.82
2017-11-05T00:44:42.237Z,98008.16
2017-11-05T00:47:17.475Z,98006.06
2017-11-05T00:49:48.474Z,98006.48
2017-11-05T00:52:24.345Z,98002.98
2017-11-05T00:54:58.011Z,98004.16
2017-11-05T00:57:33.327Z,98010.23
2017-11-05T01:00:05.389Z,97997.08
2017-11-05T01:02:38.153Z,98008.07
2017-11-05T01:05:20.008Z,98003.80
2017-11-05T01:07:51.909Z,98007.70
2017-11-05T01:10:33.677Z,98007.20
2017-11-05T01:13:12.759Z,98000.63
2017-11-05T01:15:46.613Z,98004.90
2017-11-05T01:18:17.820Z,98000.06
2017-11-05T01:21:09.289Z,97997.66
2017-11-05T01:23:40.410Z,97998.32
2017-11-05T01:26:11.409Z,97994.74
2017-11-05T01:28:42.671Z,97995.04
2017-11-05T01:31:16.585Z,97996.54
2017-11-05T01:33:54.675Z,97989.05
2017-11-05T01:36:47.278Z,97985.97
2017-11-05T01:39:20.265Z,97984.72
2017-11-05T01:42:09.363Z,97981.52
2017-11-05T01:44:44.847Z,97979.99
2017-11-05T01:47:28.371Z,97969.80
2017-11-05T01:49:59.658Z,97969.67
2017-11-05T01:52:30.578Z,97974.08
2017-11-05T01:55:02.678Z,97980.33
2017-11-05T01:57:33.550Z,97979.91
2017-11-05T02:00:08.580Z,97969.39
2017-11-05T02:02:40.190Z,97972.88
2017-11-05T02:07:48.579Z,97953.99
2017-11-05T02:10:29.525Z,97958.35
2017-11-05T02:13:05.149Z,97957.44
2017-11-05T02:15:39.519Z,97940.45
2017-11-05T02:18:15.655Z,97938.48
2017-11-05T02:20:48.140Z,97938.59
2017-11-05T02:23:21.045Z,97930.61
2017-11-05T02:26:01.127Z,97931.52
2017-11-05T02:28:36.950Z,97931.77
2017-11-05T02:31:08.062Z,97926.38
2017-11-05T02:33:39.906Z,97932.27
2017-11-05T02:36:11.530Z,97934.73
2017-11-05T02:38:44.711Z,97931.55
2017-11-05T02:41:19.045Z,97929.54
2017-11-05T02:43:52.509Z,97926.59
2017-11-05T02:46:28.207Z,97919.98
2017-11-05T02:49:03.013Z,97925.06
2017-11-05T02:51:38.510Z,97918.44
2017-11-05T02:54:32.627Z,97917.67
2017-11-05T02:57:09.710Z,97912.05
2017-11-05T02:59:48.858Z,97905.41
2017-11-05T03:02:21.514Z,97896.86
2017-11-05T03:04:52.782Z,97893.11
2017-11-05T03:07:30.211Z,97895.69
2017-11-05T03:10:01.268Z,97894.17
2017-11-05T03:12:35.763Z,97891.11
2017-11-05T03:15:08.869Z,97892.11
2017-11-05T03:17:40.595Z,97880.41
2017-11-05T03:20:13.152Z,97880.86
2017-11-05T03:22:44.241Z,97873.28
2017-11-05T03:25:15.107Z,97879.22
2017-11-05T03:27:46.375Z,97875.08
2017-11-05T03:30:17.560Z,97875.39
2017-11-05T03:35:35.053Z,97870.34
2017-11-05T03:38:10.694Z,97867.09
2017-11-05T03:40:47.195Z,97881.30
2017-11-05T03:43:19.684Z,97886.28
2017-11-05T03:45:50.839Z,97875.42
2017-11-05T03:48:28.556Z,97878.83
2017-11-05T03:50:59.696Z,97876.91
2017-11-05T03:53:32.424Z,97883.94
2017-11-05T03:56:07.631Z,97885.75
2017-11-05T03:58:38.771Z,97867.69
2017-11-05T04:01:10.064Z,97872.26
2017-11-05T04:03:46.925Z,97875.17
2017-11-05T04:06:20.559Z,97853.13
2017-11-05T04:08:52.459Z,97865.42
2017-11-05T04:11:32.787Z,97863.11
2017-11-05T04:14:05.666Z,97859.20
2017-11-05T04:16:38.593Z,97851.99
2017-11-05T04:19:09.959Z,97859.27
2017-11-05T04:21:50.376Z,97859.19
2017-11-05T04:24:26.876Z,97868.33
2017-11-05T04:26:59.245Z,97855.91
2017-11-05T04:29:31.861Z,97855.58
2017-11-05T04:32:18.557Z,97861.44
2017-11-05T04:34:52.130Z,97863.39
2017-11-05T04:37:30.166Z,97848.06
2017-11-05T04:40:01.818Z,97848.89
2017-11-05T04:42:32.982Z,97851.25
2017-11-05T04:45:08.021Z,97855.23
2017-11-05T04:47:43.869Z,97851.70
2017-11-05T04:50:16.403Z,97843.36
2017-11-05T04:52:50.777Z,97840.90
2017-11-05T04:58:00.855Z,97841.28
2017-11-05T05:00:35.180Z,97839.23
2017-11-05T05:03:12.702Z,97838.66
2017-11-05T05:05:44.614Z,97846.88
2017-11-05T05:08:16.874Z,97839.08
2017-11-05T05:10:50.074Z,97826.77
2017-11-05T05:13:35.296Z,97836.71
2017-11-05T05:16:11.728Z,97826.69
2017-11-05T05:18:45.685Z,97830.22
2017-11-05T05:21:17.662Z,97827.91
2017-11-05T05:23:51.617Z,97828.48
2017-11-05T05:26:33.125Z,97826.40
2017-11-05T05:29:18.428Z,97836.45
2017-11-05T05:31:53.275Z,97841.02
2017-11-05T05:34:46.051Z,97836.94
2017-11-05T05:40:12.374Z,97839.13
2017-11-05T05:42:55.622Z,97842.48
2017-11-05T05:45:30.718Z,97845.66
2017-11-05T05:48:04.121Z,97842.55
2017-11-05T05:50:39.730Z,97849.78
2017-11-05T05:53:29.499Z,97847.53
2017-11-05T05:56:00.957Z,97847.20
2017-11-05T05:58:31.916Z,97850.32
2017-11-05T06:01:03.898Z,97848.99
2017-11-05T06:03:42.495Z,97849.42
2017-11-05T06:06:20.620Z,97854.48
2017-11-05T06:08:58.294Z,97849.67
2017-11-05T06:11:30.926Z,97847.42
2017-11-05T06:14:03.105Z,97844.09
2017-11-05T06:16:34.343Z,97842.85
2017-11-05T06:19:14.094Z,97851.50
2017-11-05T06:21:49.931Z,97860.71
2017-11-05T06:24:38.609Z,97858.09
2017-11-05T06:27:12.620Z,97865.08
2017-11-05T06:29:48.475Z,97856.88
2017-11-05T06:32:24.195Z,97872.67
2017-11-05T06:35:02.611Z,97869.13
2017-11-05T06:37:37.290Z,97867.04
2017-11-05T06:40:12.935Z,97869.52
2017-11-05T06:42:47.931Z,97865.08
2017-11-05T06:45:19.318Z,97857.70
2017-11-05T06:48:00.147Z,97851.77
2017-11-05T06:50:34.124Z,97862.83
2017-11-05T06:53:09.053Z,97857.55
2017-11-05T06:58:25.190Z,97855.78
2017-11-05T07:00:58.218Z,97846.02
2017-11-05T07:03:32.642Z,97840.45
2017-11-05T07:09:05.042Z,97833.19
2017-11-05T07:11:37.485Z,97836.55
2017-11-05T07:14:09.859Z,97838.70
2017-11-05T07:16:43.274Z,97828.32
2017-11-05T07:19:14.382Z,97826.91
2017-11-05T07:21:50.003Z,97832.94
2017-11-05T07:24:27.163Z,97829.94
2017-11-05T07:27:04.047Z,97831.89
2017-11-05T07:29:36.547Z,97824.99
2017-11-05T07:32:08.160Z,97819.79
2017-11-05T07:34:40.795Z,97823.03
2017-11-05T07:37:17.858Z,97819.38
2017-11-05T07:39:49.728Z,97821.78
2017-11-05T07:42:20.950Z,97812.31
2017-11-05T07:44:52.578Z,97816.66
2017-11-05T07:47:24.377Z,97819.44
2017-11-05T07:49:55.684Z,97819.80
2017-11-05T07:52:26.963Z,97814.75
2017-11-05T07:54:58.335Z,97809.80
2017-11-05T07:57:29.703Z,97812.98
2017-11-05T08:00:06.620Z,97810.47
2017-11-05T08:02:38.812Z,97809.06
2017-11-05T08:05:11.714Z,97810.92
2017-11-05T08:07:43.030Z,97800.76
2017-11-05T08:10:14.632Z,97802.94
2017-11-05T08:12:45.715Z,97804.52
2017-11-05T08:15:17.330Z,97797.44
2017-11-05T08:17:48.745Z,97797.05
2017-11-05T08:20:24.524Z,97795.38
2017-11-05T08:22:56.557Z,97792.63
2017-11-05T08:25:28.246Z,97783.65
2017-11-05T08:28:03.470Z,97787.31
2017-11-05T08:30:39.742Z,97786.05
2017-11-05T08:33:10.890Z,97793.15
2017-11-05T08:35:44.713Z,97800.66
2017-11-05T08:38:16.068Z,97798.73
2017-11-05T08:40:48.174Z,97789.63
2017-11-05T08:43:20.830Z,97779.02
2017-11-05T08:45:53.068Z,97777.13
2017-11-05T08:48:24.024Z,97768.70
2017-11-05T08:50:56.135Z,97767.38
2017-11-05T08:53:27.439Z,97768.22
2017-11-05T08:56:00.064Z,97773.28
2017-11-05T08:58:31.563Z,97761.88
2017-11-05T09:01:03.364Z,97771.38
2017-11-05T09:03:55.373Z,97769.30
2017-11-05T09:06:27.683Z,97769.45
2017-11-05T09:09:26.105Z,97772.19
2017-11-05T09:14:46.680Z,97757.45
2017-11-05T09:17:18.878Z,97771.36
2017-11-05T09:19:51.992Z,97776.77
2017-11-05T09:22:24.933Z,97764.69
2017-11-05T09:25:03.039Z,97771.84
2017-11-05T09:27:35.242Z,97766.27
2017-11-05T09:30:08.530Z,97770.44
2017-11-05T09:32:42.102Z,97769.32
2017-11-05T09:35:15.216Z,97773.80
2017-11-05T09:37:51.304Z,97777.34
2017-11-05T09:40:34.882Z,97775.35
2017-11-05T09:43:12.837Z,97782.50
2017-11-05T09:45:51.816Z,97796.49
2017-11-05T09:48:27.348Z,97794.98
2017-11-05T09:51:02.398Z,97796.11
2017-11-05T09:53:34.549Z,97802.28
2017-11-05T09:56:08.133Z,97793.91
2017-11-05T09:58:42.879Z,97800.05
2017-11-05T10:01:21.487Z,97804.97
2017-11-05T10:03:58.450Z,97803.42
2017-11-05T10:06:30.494Z,97806.00
2017-11-05T10:09:05.566Z,97804.48
2017-11-05T10:11:36.994Z,97802.45
2017-11-05T10:14:10.659Z,97804.19
2017-11-05T10:16:43.732Z,97810.36
2017-11-05T10:19:24.293Z,97812.67
2017-11-05T10:22:02.043Z,97818.92
2017-11-05T10:24:45.369Z,97809.16
2017-11-05T10:27:22.766Z,97809.53
2017-11-05T10:36:13.676Z,97805.67
2017-11-05T10:38:56.261Z,97799.91
2017-11-05T10:41:48.461Z,97793.60
2017-11-05T10:44:26.122Z,97797.51
2017-11-05T10:47:02.298Z,97797.50
2017-11-05T10:49:38.389Z,97796.63
2017-11-05T10:52:13.395Z,97791.84
2017-11-05T10:54:45.693Z,97792.75
2017-11-05T10:57:18.180Z,97789.02
2017-11-05T10:59:51.213Z,97782.34
2017-11-05T11:02:26.569Z,97775.87
2017-11-05T11:05:00.102Z,97773.77
2017-11-05T11:07:36.012Z,97770.98
2017-11-05T11:10:11.972Z,97776.70
2017-11-05T11:12:47.278Z,97776.42
2017-11-05T11:15:21.942Z,97780.02
2017-11-05T11:17:56.798Z,97780.69
2017-11-05T11:23:22.292Z,97794.95
2017-11-05T11:25:56.833Z,97802.11
2017-11-05T11:28:40.157Z,97800.25
2017-11-05T11:31:11.643Z,97800.13
2017-11-05T11:33:45.719Z,97796.90
2017-11-05T11:36:17.634Z,97792.68
2017-11-05T11:38:50.868Z,97798.89
2017-11-05T11:41:26.603Z,97797.52
2017-11-05T11:44:06.196Z,97811.60
2017-11-05T11:46:38.120Z,97805.98
2017-11-05T11:49:10.124Z,97808.34
2017-11-05T11:51:42.713Z,97806.91
2017-11-05T11:54:13.763Z,97812.56
2017-11-05T11:56:47.023Z,97814.37
2017-11-05T11:59:18.630Z,97818.08
2017-11-05T12:01:52.785Z,97819.00
2017-11-05T12:04:47.226Z,97829.88
2017-11-05T12:07:18.667Z,97827.38
2017-11-05T12:09:50.082Z,97827.88
2017-11-05T12:12:22.420Z,97828.48
2017-11-05T12:14:55.548Z,97835.23
2017-11-05T12:17:26.654Z,97833.98
2017-11-05T12:20:00.050Z,97832.89
2017-11-05T12:22:32.161Z,97830.42
2017-11-05T12:25:08.899Z,97830.49
2017-11-05T12:27:42.811Z,97832.02
2017-11-05T12:30:15.902Z,97834.91
2017-11-05T12:32:51.214Z,97834.27
2017-11-05T12:35:23.564Z,97835.98
2017-11-05T12:37:58.746Z,97839.34
2017-11-05T12:41:23.219Z,97840.74
2017-11-05T12:43:59.124Z,97846.08
2017-11-05T12:50:06.652Z,97850.92
2017-11-05T12:52:44.179Z,97861.01
2017-11-05T12:55:16.206Z,97863.98
2017-11-05T12:57:49.149Z,97868.72
2017-11-05T13:00:21.665Z,97873.14
2017-11-05T13:02:53.624Z,97873.89
2017-11-05T13:05:25.605Z,97870.87
2017-11-05T13:07:57.833Z,97875.59
2017-11-05T13:10:29.282Z,97873.81
2017-11-05T13:13:04.124Z,97882.69
2017-11-05T13:15:40.993Z,97884.19
2017-11-05T13:18:13.764Z,97885.50
2017-11-05T13:20:48.461Z,97896.59
2017-11-05T13:23:23.422Z,97902.22
2017-11-05T13:25:55.017Z,97908.47
2017-11-05T13:28:26.347Z,97917.86
2017-11-05T13:30:58.093Z,97933.41
2017-11-05T13:33:29.655Z,97934.14
2017-11-05T13:36:02.961Z,97938.71
2017-11-05T13:38:34.923Z,97936.95
2017-11-05T13:41:07.051Z,97960.20
2017-11-05T13:43:40.882Z,97949.87
2017-11-05T13:46:12.858Z,97959.64
2017-11-05T13:48:44.750Z,97967.15
2017-11-05T13:51:17.885Z,97974.88
2017-11-05T13:53:52.380Z,97983.20
2017-11-05T13:56:24.234Z,97982.03
2017-11-05T13:58:56.776Z,97991.55
2017-11-05T14:01:28.754Z,97992.59
2017-11-05T14:04:00.930Z,98006.89
2017-11-05T14:06:36.280Z,97998.86
2017-11-05T14:09:09.393Z,98010.30
2017-11-05T14:11:42.336Z,98019.27
2017-11-05T14:14:14.400Z,98022.84
2017-11-05T14:16:47.452Z,98021.94
2017-11-05T14:19:21.876Z,98045.86
2017-11-05T14:21:54.466Z,98052.06
2017-11-05T14:24:32.126Z,98046.27
2017-11-05T14:27:05.789Z,98052.65
2017-11-05T14:29:41.021Z,98066.75
2017-11-05T14:32:15.717Z,98066.59
2017-11-05T14:34:52.068Z,98073.44
2017-11-05T14:37:23.360Z,98087.22
2017-11-05T14:39:55.518Z,98089.31
2017-11-05T14:42:29.202Z,98093.78
2017-11-05T14:45:03.021Z,98097.27
2017-11-05T14:47:38.811Z,98112.13
2017-11-05T14:50:15.037Z,98111.40
2017-11-05T14:52:53.160Z,98118.39
2017-11-05T14:55:25.833Z,98119.53
2017-11-05T14:57:57.780Z,98126.89
2017-11-05T15:00:32.142Z,98132.58
2017-11-05T15:03:05.930Z,98140.39
2017-11-05T15:05:37.210Z,98147.05
2017-11-05T15:10:47.691Z,98154.22
2017-11-05T15:13:19.593Z,98161.67
2017-11-05T15:15:53.029Z,98157.11
2017-11-05T15:18:25.366Z,98169.45
2017-11-05T15:20:57.394Z,98172.83
2017-11-05T15:23:32.087Z,98167.62
2017-11-05T15:26:04.375Z,98174.22
2017-11-05T15:28:38.962Z,98175.02
2017-11-05T15:31:10.408Z,98186.19
2017-11-05T15:33:43.913Z,98192.09
2017-11-05T15:36:16.303Z,98205.77
2017-11-05T15:38:49.200Z,98207.23
2017-11-05T15:41:20.691Z,98218.16
2017-11-05T15:43:54.798Z,98229.09
2017-11-05T15:46:27.708Z,98232.58
2017-11-05T15:48:59.707Z,98245.56
2017-11-05T15:51:35.381Z,98244.86
2017-11-05T15:54:10.242Z,98246.81
2017-11-05T15:56:45.879Z,98255.06
2017-11-05T15:59:18.936Z,98262.50
2017-11-05T16:01:53.341Z,98270.59
2017-11-05T16:04:26.078Z,98274.95
2017-11-05T16:06:59.280Z,98286.39
2017-11-05T16:09:31.892Z,98293.00
2017-11-05T16:12:05.053Z,98295.56
2017-11-05T16:14:37.462Z,98308.73
2017-11-05T16:17:09.075Z,98319.66
2017-11-05T16:19:40.838Z,98320.43
2017-11-05T16:22:12.264Z,98324.67
2017-11-05T16:24:44.689Z,98336.23
2017-11-05T16:30:49.690Z,98341.77
2017-11-05T16:33:21.563Z,98347.27
2017-11-05T16:35:55.107Z,98343.29
2017-11-05T16:38:26.581Z,98348.59
2017-11-05T16:40:59.512Z,98361.73
2017-11-05T16:43:31.206Z,98366.89
2017-11-05T16:46:05.387Z,98365.98
2017-11-05T16:48:37.123Z,98376.58
2017-11-05T16:51:09.215Z,98376.23
2017-11-05T16:53:40.604Z,98380.55
2017-11-05T16:56:13.561Z,98382.48
2017-11-05T16:58:45.074Z,98394.39
2017-11-05T17:01:16.311Z,98392.16
2017-11-05T17:03:47.165Z,98393.84
2017-11-05T17:06:19.022Z,98400.11
2017-11-05T17:08:51.327Z,98409.49
2017-11-05T17:11:22.478Z,98413.84
2017-11-05T17:13:55.289Z,98421.47
2017-11-05T17:16:29.067Z,98422.50
2017-11-05T17:19:00.324Z,98422.59
2017-11-05T17:21:31.381Z,98420.69
2017-11-05T17:24:04.014Z,98431.03
2017-11-05T17:26:34.929Z,98431.39
2017-11-05T17:29:07.641Z,98434.41
2017-11-05T17:31:38.736Z,98435.37
2017-11-05T17:34:09.930Z,98441.86
2017-11-05T17:36:40.790Z,98449.14
2017-11-05T17:39:12.044Z,98458.27
2017-11-05T17:41:44.560Z,98465.33
2017-11-05T17:44:17.702Z,98466.11
2017-11-05T17:46:52.286Z,98468.83
2017-11-05T17:49:23.583Z,98478.94
2017-11-05T17:51:54.638Z,98489.58
2017-11-05T17:54:26.951Z,98497.08
2017-11-05T17:56:58.051Z,98493.95
2017-11-05T17:59:32.623Z,98496.95
2017-11-05T18:02:06.343Z,98489.12
2017-11-05T18:04:38.921Z,98489.92
2017-11-05T18:07:09.830Z,98497.73
2017-11-05T18:09:42.435Z,98506.25
2017-11-05T18:12:13.311Z,98503.69
2017-11-05T18:14:44.660Z,98502.78
2017-11-05T18:17:22.485Z,98509.58
2017-11-05T18:19:57.650Z,98511.28
2017-11-05T18:22:30.703Z,98511.58
2017-11-05T18:25:04.818Z,98508.75
2017-11-05T18:28:21.987Z,98503.72
2017-11-05T18:30:56.123Z,98503.64
2017-11-05T18:33:27.711Z,98508.09
2017-11-05T18:36:00.170Z,98507.94
2017-11-05T18:38:33.270Z,98515.08
2017-11-05T18:41:04.424Z,98526.19
2017-11-05T18:43:37.720Z,98522.64
2017-11-05T18:46:12.928Z,98524.86
2017-11-05T18:49:01.001Z,98527.98
2017-11-05T18:51:43.310Z,98521.75
2017-11-05T19:00:26.269Z,98524.31
2017-11-05T19:02:58.889Z,98517.70
2017-11-05T19:05:33.248Z,98522.83
2017-11-05T19:08:04.429Z,98529.67
2017-11-05T19:10:37.244Z,98527.40
2017-11-05T19:13:09.573Z,98531.37
2017-11-05T19:15:41.567Z,98536.22
2017-11-05T19:18:14.185Z,98542.11
2017-11-05T19:20:46.300Z,98541.46
2017-11-05T19:23:18.396Z,98549.65
2017-11-05T19:25:51.948Z,98560.28
2017-11-05T19:28:25.749Z,98557.27
2017-11-05T19:30:57.077Z,98558.78
2017-11-05T19:33:28.712Z,98563.61
2017-11-05T19:36:00.386Z,98564.85
2017-11-05T19:38:32.146Z,98570.77
2017-11-05T19:41:05.393Z,98564.97
2017-11-05T19:43:37.670Z,98570.14
2017-11-05T19:46:17.119Z,98569.67
2017-11-05T19:48:48.959Z,98573.50
2017-11-05T19:51:21.779Z,98576.56
2017-11-05T19:53:55.296Z,98579.27
2017-11-05T19:56:29.506Z,98575.20
2017-11-05T19:59:02.219Z,98581.98
2017-11-05T20:01:35.962Z,98587.03
2017-11-05T20:04:10.159Z,98592.14
2017-11-05T20:06:42.731Z,98590.56
2017-11-05T20:09:16.012Z,98582.14
2017-11-05T20:11:50.345Z,98594.66
2017-11-05T20:14:25.952Z,98597.66
2017-11-05T20:16:58.391Z,98600.42
2017-11-05T20:19:31.214Z,98598.48
2017-11-05T20:22:04.398Z,98603.07
2017-11-05T20:24:40.008Z,98606.47
2017-11-05T20:27:12.236Z,98606.17
2017-11-05T20:29:47.263Z,98616.52
2017-11-05T20:32:20.469Z,98614.77
2017-11-05T20:34:52.809Z,98617.75
2017-11-05T20:37:30.707Z,98631.66
2017-11-05T20:40:08.879Z,98628.72
2017-11-05T20:42:41.896Z,98629.17
2017-11-05T20:45:15.955Z,98627.75
2017-11-05T20:47:49.172Z,98636.92
2017-11-05T20:50:22.211Z,98635.18
2017-11-05T20:52:58.637Z,98636.02
2017-11-05T20:55:31.450Z,98632.41
2017-11-05T20:58:03.382Z,98627.61
2017-11-05T21:00:34.789Z,98630.52
2017-11-05T21:03:06.180Z,98638.22
2017-11-05T21:05:40.969Z,98645.91
2017-11-05T21:08:17.868Z,98657.17
2017-11-05T21:10:50.159Z,98656.12
2017-11-05T21:13:21.665Z,98661.47
2017-11-05T21:15:55.004Z,98659.99
2017-11-05T21:18:27.975Z,98660.59
2017-11-05T21:21:01.929Z,98657.63
2017-11-05T21:23:33.139Z,98658.58
2017-11-05T21:26:05.606Z,98658.38
2017-11-05T21:28:38.286Z,98657.69
2017-11-05T21:31:10.037Z,98655.28
2017-11-05T21:33:42.451Z,98661.44
2017-11-05T21:36:16.512Z,98657.70
2017-11-05T21:38:51.952Z,98658.33
2017-11-05T21:41:22.953Z,98661.70
2017-11-05T21:43:54.900Z,98661.17
2017-11-05T21:46:26.575Z,98658.71
2017-11-05T21:49:01.218Z,98659.95
2017-11-05T21:51:32.731Z,98664.60
2017-11-05T21:54:04.097Z,98671.03
2017-11-05T21:56:36.080Z,98673.17
2017-11-05T21:59:07.056Z,98666.44
2017-11-05T22:01:40.036Z,98668.63
2017-11-05T22:04:14.202Z,98673.07
2017-11-05T22:06:45.887Z,98680.34
2017-11-05T22:09:18.733Z,98681.84
2017-11-05T22:11:52.118Z,98683.98
2017-11-05T22:14:27.055Z,98680.77
2017-11-05T22:16:57.919Z,98686.05
2017-11-05T22:19:30.020Z,98698.66
2017-11-05T22:22:03.202Z,98700.64
2017-11-05T22:24:35.116Z,98704.78
2017-11-05T22:27:07.756Z,98700.04
2017-11-05T22:29:40.176Z,98699.70
2017-11-05T22:32:12.562Z,98700.66
2017-11-05T22:34:46.672Z,98709.19
2017-11-05T22:37:17.541Z,98708.45
2017-11-05T22:39:49.509Z,98707.26
2017-11-05T22:42:23.296Z,98709.06
2017-11-05T22:44:54.666Z,98706.91
2017-11-05T22:47:26.095Z,98708.64
2017-11-05T22:49:57.706Z,98705.64
2017-11-05T22:52:30.642Z,98717.47
2017-11-05T22:55:03.472Z,98720.37
2017-11-05T22:57:34.998Z,98728.59
2017-11-05T23:00:06.696Z,98723.25
2017-11-05T23:02:37.673Z,98727.39
2017-11-05T23:05:13.376Z,98741.13
2017-11-05T23:07:45.474Z,98739.70
2017-11-05T23:10:19.021Z,98743.95
2017-11-05T23:12:50.177Z,98746.56
2017-11-05T23:15:23.349Z,98751.13
2017-11-05T23:17:54.878Z,98755.12
2017-11-05T23:20:26.276Z,98754.36
2017-11-05T23:22:57.176Z,98754.48
2017-11-05T23:25:28.440Z,98756.58
2017-11-05T23:27:59.195Z,98756.98
2017-11-05T23:30:30.405Z,98756.56
2017-11-05T23:33:02.424Z,98751.36
2017-11-05T23:35:33.286Z,98755.02
2017-11-05T23:38:05.258Z,98765.89
2017-11-05T23:40:36.878Z,98773.27
2017-11-05T23:43:08.920Z,98767.73
2017-11-05T23:45:39.550Z,98766.07
2017-11-05T23:48:11.288Z,98764.33
2017-11-05T23:50:43.063Z,98776.39
2017-11-05T23:53:14.048Z,98768.54
2017-11-05T23:55:46.661Z,98774.23
2017-11-05T23:58:19.406Z,98780.78
